Havre City County Airport
KHVR : now visible

Airfield :











YOU CAN JOIN US ON...

 
LOGIN :

Register | Disclaimer

   EN    FR    IT 

 









Legend :    VFR   Marginal VFR   IFR   Intensive IFR   Very Intensive IFR
Visi :
Ceiling :
>= 8 km
>= 3000ft
5 to 8 km
1000 to 3000 ft
1500m to 5 km
500 to 1000 ft
800 to 1500m
200 to 500 ft
< 800m
< 200 ft
Symbols :   Thunderstorms  Fog  Heavy snow  Heavy precipitations  Wind > 20 kt







- Airport Elevation : 2591 ft


KHVR - Havre City County

CURRENT METAR :
  • 162053Z AUTO 19006KT 10SM CLR 30/06 A2961 RMK AO2 SLP013 T03000061 56015

EXPIRED METARs :
  • 161953Z AUTO 11003KT 10SM CLR 28/08 A2962 RMK AO2 SLP018 T02830083
  • 161853Z AUTO 00000KT 10SM CLR 24/09 A2964 RMK AO2 SLP026 T02440094

TAF KHVR
Valid from the 16 at 18:00 until the 17 at 18:00 UTC


161745Z 1618/1718 VRB05KT P6SM FEW150 SCT250
FM170600 27008KT P6SM VCSH SCT080 BKN100
PROB30 1708/1711 6SM -SHRA SCT060 BKN080
FM171400 29010G22KT P6SM FEW060 SCT100
PROB30 1715/1718 6SM -SHRA BKN060 BKN100
No reported NOTAMs for that airfield.



MET'MAP, your aeronautical weather chart ! - Copyright ORBIFLY December 2007 - Disclaimer

ORBIFLY MET'MAP TEAM :

Programming & Development : Alexandra Zaïnal
Concept & Development : Baudouin d'Aumeries
Co-Development & Prog : Marc-Olivier Méhu
Technical & hardware support : Manuel Goepfert

Contact : metmap@orbifly.com




SOURCES & CREDITS :

   NOAA       Earth
Advisory